Time;durP1;ratioP1;P1;durP2;ratioP2;P2;SDS_P1;SDS_P2;PMS_P1;PMS_P2;Temp;Humidity;BMP_temperature;BMP_pressure;BME280_temperature;BME280_humidity;BME280_pressure;Samples;Min_cycle;Max_cycle;Signal;HPM_P1;HPM_P2
2023/12/28 00:00:34;;;;;;;1.45;0.70;;;10.60;99.90;;;;;;5046511;23;20161;-92
2023/12/28 00:02:35;;;;;;;0.45;0.32;;;10.60;99.90;;;;;;5046686;23;20236;-94
2023/12/28 00:04:36;;;;;;;1.10;0.70;;;10.60;99.90;;;;;;5046413;23;20194;-95
2023/12/28 00:06:37;;;;;;;0.60;0.50;;;10.60;99.90;;;;;;5046035;23;20199;-95
2023/12/28 00:08:37;;;;;;;2.80;0.90;;;10.60;99.90;;;;;;5070443;23;20153;-92
2023/12/28 00:10:38;;;;;;;0.95;0.50;;;10.60;99.90;;;;;;5046562;23;20170;-92
2023/12/28 00:12:39;;;;;;;0.45;0.30;;;10.60;99.90;;;;;;5046740;23;20641;-93
2023/12/28 00:14:40;;;;;;;1.10;0.70;;;10.60;99.90;;;;;;5046440;23;20186;-92
2023/12/28 00:16:41;;;;;;;0.75;0.57;;;10.60;99.90;;;;;;5046431;23;20265;-95
2023/12/28 00:18:42;;;;;;;2.20;0.95;;;10.50;99.90;;;;;;5046773;23;20205;-92
2023/12/28 00:20:43;;;;;;;1.83;0.82;;;10.50;99.90;;;;;;5047673;23;20205;-93
2023/12/28 00:22:44;;;;;;;0.68;0.40;;;10.50;99.90;;;;;;5047807;23;20161;-92
2023/12/28 00:24:44;;;;;;;1.35;0.75;;;10.60;99.90;;;;;;5071168;23;20157;-94
2023/12/28 00:26:45;;;;;;;1.38;0.60;;;10.70;99.90;;;;;;5070726;23;20177;-95
2023/12/28 00:28:46;;;;;;;0.30;0.20;;;10.70;99.90;;;;;;5046517;23;20632;-92
2023/12/28 00:30:47;;;;;;;0.85;0.63;;;10.80;99.90;;;;;;5046482;23;20155;-93
2023/12/28 00:32:48;;;;;;;2.08;1.08;;;10.70;99.90;;;;;;5046014;23;20151;-93
2023/12/28 00:34:49;;;;;;;1.08;0.75;;;10.70;99.90;;;;;;5046240;23;20189;-92
2023/12/28 00:36:50;;;;;;;5.47;1.13;;;10.70;99.90;;;;;;5046133;23;20649;-95
2023/12/28 00:38:50;;;;;;;3.50;0.43;;;10.70;99.90;;;;;;5046308;23;20229;-95
2023/12/28 00:40:51;;;;;;;1.08;0.25;;;10.70;99.90;;;;;;5046139;23;20165;-94
2023/12/28 00:42:52;;;;;;;1.27;0.63;;;10.60;99.90;;;;;;5046001;23;20220;-92
2023/12/28 00:44:53;;;;;;;2.53;0.47;;;10.60;99.90;;;;;;5046130;23;20159;-91
2023/12/28 00:46:54;;;;;;;4.97;0.65;;;10.60;99.90;;;;;;5045882;23;20229;-96
2023/12/28 00:48:54;;;;;;;0.95;0.60;;;10.60;99.90;;;;;;5070470;23;20240;-96
2023/12/28 00:50:56;;;;;;;1.77;0.93;;;10.60;99.90;;;;;;5045710;23;20550;-96
2023/12/28 00:52:57;;;;;;;0.73;0.52;;;10.60;99.90;;;;;;5045983;23;20197;-95
2023/12/28 00:54:58;;;;;;;1.27;0.65;;;10.60;99.90;;;;;;5070197;23;20189;-92
2023/12/28 00:56:59;;;;;;;1.23;0.63;;;10.60;99.90;;;;;;5045618;23;20237;-95
2023/12/28 00:59:01;;;;;;;0.52;0.43;;;10.70;99.90;;;;;;5045610;23;20221;-91
2023/12/28 01:01:02;;;;;;;2.50;0.50;;;10.80;99.90;;;;;;5046196;23;20174;-96
2023/12/28 01:03:03;;;;;;;4.47;0.93;;;10.70;99.90;;;;;;5070036;23;20628;-94
2023/12/28 01:05:05;;;;;;;2.03;0.52;;;10.70;99.90;;;;;;5070133;23;20186;-93
2023/12/28 01:07:06;;;;;;;3.20;0.95;;;10.70;99.90;;;;;;5070223;23;20185;-94
2023/12/28 01:09:07;;;;;;;0.63;0.32;;;10.70;99.90;;;;;;5070486;23;20160;-96
2023/12/28 01:11:08;;;;;;;1.83;0.65;;;10.60;99.90;;;;;;5045906;23;20186;-91
2023/12/28 01:13:09;;;;;;;2.05;0.77;;;10.50;99.90;;;;;;5045460;23;20158;-95
2023/12/28 01:15:10;;;;;;;2.65;0.73;;;10.50;99.90;;;;;;5069583;23;20194;-92
2023/12/28 01:17:11;;;;;;;1.67;0.75;;;10.40;99.90;;;;;;5045772;23;20174;-95
2023/12/28 01:19:12;;;;;;;0.85;0.38;;;10.40;99.90;;;;;;5045676;23;20150;-95
2023/12/28 01:21:13;;;;;;;0.50;0.40;;;10.40;99.90;;;;;;5070255;23;20241;-94
2023/12/28 01:23:14;;;;;;;2.00;0.65;;;10.40;99.90;;;;;;5045701;23;20564;-95
2023/12/28 01:25:14;;;;;;;2.15;0.75;;;10.40;99.90;;;;;;5069860;23;20608;-91
2023/12/28 01:27:16;;;;;;;2.47;1.00;;;10.50;99.90;;;;;;5070255;23;20153;-91
2023/12/28 01:29:17;;;;;;;1.17;0.57;;;10.40;99.90;;;;;;5045813;23;20155;-94
2023/12/28 01:31:18;;;;;;;0.82;0.40;;;10.40;99.90;;;;;;5045396;23;20210;-91
2023/12/28 01:33:18;;;;;;;3.13;1.25;;;10.40;99.90;;;;;;5069921;23;20158;-91
2023/12/28 01:35:19;;;;;;;1.17;0.40;;;10.40;99.90;;;;;;5069485;23;20193;-91
2023/12/28 01:37:20;;;;;;;1.35;0.63;;;10.40;99.90;;;;;;5046028;23;20236;-95
2023/12/28 01:39:21;;;;;;;2.47;0.50;;;10.40;99.90;;;;;;5045616;23;20160;-93
2023/12/28 01:41:22;;;;;;;3.30;0.90;;;10.40;99.90;;;;;;5045518;23;20147;-95
2023/12/28 01:43:23;;;;;;;1.95;0.60;;;10.40;99.90;;;;;;5069797;23;20177;-95
2023/12/28 01:45:24;;;;;;;0.50;0.30;;;10.40;99.90;;;;;;5045545;23;20165;-95
2023/12/28 01:47:26;;;;;;;0.20;0.20;;;10.30;99.90;;;;;;5069629;23;20206;-94
2023/12/28 01:49:27;;;;;;;6.38;1.65;;;10.30;99.90;;;;;;5045441;23;20518;-94
2023/12/28 01:51:28;;;;;;;4.38;0.82;;;10.30;99.90;;;;;;5045509;23;20198;-95
2023/12/28 01:53:29;;;;;;;1.58;0.60;;;10.30;99.90;;;;;;5045378;23;20557;-92
2023/12/28 01:55:31;;;;;;;1.27;0.45;;;10.30;99.90;;;;;;5069723;23;20193;-95
2023/12/28 01:57:33;;;;;;;2.67;0.93;;;10.30;99.90;;;;;;5069690;23;20545;-94
2023/12/28 01:59:34;;;;;;;1.35;0.55;;;10.30;99.90;;;;;;5045230;23;20159;-93
2023/12/28 02:01:35;;;;;;;0.43;0.40;;;10.40;99.90;;;;;;5045385;23;20158;-91
2023/12/28 02:03:36;;;;;;;2.13;1.08;;;10.40;99.90;;;;;;5045042;23;20155;-92
2023/12/28 02:05:37;;;;;;;1.40;0.63;;;10.30;99.90;;;;;;5045351;23;20267;-92
2023/12/28 02:07:38;;;;;;;2.38;0.50;;;10.40;99.90;;;;;;5045463;23;20233;-90
2023/12/28 02:09:39;;;;;;;0.85;0.50;;;10.40;99.90;;;;;;5069674;23;20150;-95
2023/12/28 02:11:40;;;;;;;0.57;0.28;;;10.40;99.90;;;;;;5044793;23;20165;-96
2023/12/28 02:13:42;;;;;;;1.48;0.68;;;10.40;99.90;;;;;;5069218;23;20149;-94
2023/12/28 02:15:46;;;;;;;0.82;0.70;;;10.40;99.90;;;;;;5044708;23;20194;-92
2023/12/28 02:17:55;;;;;;;6.55;1.20;;;10.30;99.90;;;;;;5045014;23;20150;-92
2023/12/28 02:19:57;;;;;;;0.82;0.50;;;10.30;99.90;;;;;;5045128;23;20509;-92
2023/12/28 02:21:59;;;;;;;3.25;0.52;;;10.40;99.90;;;;;;5045515;23;20158;-92
2023/12/28 02:24:00;;;;;;;1.20;0.95;;;10.50;99.90;;;;;;5069391;23;20176;-92
2023/12/28 02:26:01;;;;;;;0.90;0.40;;;10.50;99.90;;;;;;5044813;23;20177;-92
2023/12/28 02:28:02;;;;;;;0.88;0.57;;;10.50;99.90;;;;;;5044727;23;20206;-91
2023/12/28 02:30:05;;;;;;;0.70;0.47;;;10.50;99.90;;;;;;5045097;23;20150;-91
2023/12/28 02:32:09;;;;;;;1.08;0.45;;;10.40;99.90;;;;;;5045279;23;20222;-94
2023/12/28 02:34:19;;;;;;;0.57;0.47;;;10.50;99.90;;;;;;5044971;23;20151;-94
2023/12/28 02:36:24;;;;;;;3.13;1.02;;;10.50;99.90;;;;;;5069540;23;20173;-94
2023/12/28 02:38:27;;;;;;;0.45;0.40;;;10.50;99.90;;;;;;5045121;23;20197;-96
2023/12/28 02:40:30;;;;;;;0.20;0.15;;;10.40;99.90;;;;;;5069271;23;20228;-93
2023/12/28 02:42:31;;;;;;;1.50;0.75;;;10.50;99.90;;;;;;5045106;23;20321;-95
2023/12/28 02:44:32;;;;;;;0.95;0.47;;;10.40;99.90;;;;;;5069394;23;20150;-93
2023/12/28 02:46:33;;;;;;;1.35;0.80;;;10.40;99.90;;;;;;5044929;23;20201;-92
2023/12/28 02:48:35;;;;;;;1.15;0.73;;;10.40;99.90;;;;;;5044699;23;20166;-91
2023/12/28 02:50:36;;;;;;;1.83;0.70;;;10.40;99.90;;;;;;5045413;23;20230;-92
2023/12/28 02:52:37;;;;;;;0.52;0.32;;;10.40;99.90;;;;;;5045483;23;20150;-92
2023/12/28 02:54:38;;;;;;;1.65;1.00;;;10.40;99.90;;;;;;5069473;23;20591;-92
2023/12/28 02:56:41;;;;;;;2.25;0.70;;;10.40;99.90;;;;;;5045344;23;20185;-92
2023/12/28 02:58:41;;;;;;;2.00;0.70;;;10.40;99.90;;;;;;5045255;23;20153;-92
2023/12/28 03:00:42;;;;;;;1.02;0.57;;;10.40;99.90;;;;;;5069611;23;20154;-94
2023/12/28 03:02:43;;;;;;;1.88;0.45;;;10.30;99.90;;;;;;5045141;23;20281;-92
2023/12/28 03:04:44;;;;;;;0.55;0.38;;;10.30;99.90;;;;;;5045244;23;20273;-92
2023/12/28 03:06:46;;;;;;;1.02;0.50;;;10.30;99.90;;;;;;5045095;23;20178;-94
2023/12/28 03:08:47;;;;;;;1.13;0.47;;;10.30;99.90;;;;;;5069241;23;20160;-93
2023/12/28 03:10:48;;;;;;;7.82;0.70;;;10.40;99.90;;;;;;5045097;23;20151;-93
2023/12/28 03:12:49;;;;;;;2.60;0.52;;;10.30;99.90;;;;;;5045021;23;20150;-92
2023/12/28 03:14:51;;;;;;;1.00;0.50;;;10.30;99.90;;;;;;5070525;23;20599;-92
2023/12/28 03:16:52;;;;;;;0.55;0.30;;;10.30;99.90;;;;;;5046567;23;20186;-92
2023/12/28 03:18:53;;;;;;;3.53;0.88;;;10.30;99.90;;;;;;5046538;23;20212;-94
2023/12/28 03:20:53;;;;;;;0.65;0.60;;;10.30;99.90;;;;;;5047048;23;20558;-96
2023/12/28 03:22:54;;;;;;;0.82;0.45;;;10.30;99.90;;;;;;5046443;23;20151;-92
2023/12/28 03:24:55;;;;;;;3.10;0.75;;;10.30;99.90;;;;;;5071240;23;20233;-95
2023/12/28 03:26:56;;;;;;;0.98;0.50;;;10.30;99.90;;;;;;5046376;23;20181;-92
2023/12/28 03:28:57;;;;;;;0.70;0.50;;;10.30;99.90;;;;;;5046375;23;20218;-95
2023/12/28 03:30:58;;;;;;;1.65;0.63;;;10.20;99.90;;;;;;5046413;23;20162;-95
2023/12/28 03:32:59;;;;;;;0.60;0.38;;;10.30;99.90;;;;;;5046119;23;20150;-95
2023/12/28 03:35:00;;;;;;;2.35;0.55;;;10.20;99.90;;;;;;5046451;23;20213;-92
2023/12/28 03:37:01;;;;;;;1.60;0.50;;;10.30;99.90;;;;;;5046798;23;20178;-95
2023/12/28 03:39:06;;;;;;;0.65;0.43;;;10.30;99.90;;;;;;5046684;23;20150;-94
2023/12/28 03:41:17;;;;;;;5.03;0.85;;;10.30;99.90;;;;;;5046180;23;20151;-95
2023/12/28 03:43:18;;;;;;;1.38;0.68;;;10.30;99.90;;;;;;5046582;23;20165;-92
2023/12/28 03:45:19;;;;;;;3.33;0.38;;;10.30;99.90;;;;;;5070338;23;20652;-95
2023/12/28 03:47:20;;;;;;;0.40;0.40;;;10.30;99.90;;;;;;5046501;23;20150;-94
2023/12/28 03:49:21;;;;;;;4.50;0.70;;;10.30;99.90;;;;;;5047081;23;20201;-92
2023/12/28 03:51:22;;;;;;;3.20;0.52;;;10.40;99.90;;;;;;5072504;23;20169;-94
2023/12/28 03:53:23;;;;;;;1.45;0.80;;;10.30;99.90;;;;;;5047590;23;20150;-92
2023/12/28 03:55:24;;;;;;;0.98;0.40;;;10.30;99.90;;;;;;5046138;23;20217;-91
2023/12/28 03:57:26;;;;;;;1.13;0.60;;;10.40;99.90;;;;;;5046477;23;20154;-93
2023/12/28 03:59:27;;;;;;;0.82;0.73;;;10.40;99.90;;;;;;5046585;23;20158;-91
2023/12/28 04:01:28;;;;;;;2.85;0.73;;;10.40;99.90;;;;;;5046621;23;20157;-92
2023/12/28 04:03:29;;;;;;;0.80;0.75;;;10.30;99.90;;;;;;5070492;23;20181;-92
2023/12/28 04:05:29;;;;;;;1.45;0.63;;;10.40;99.90;;;;;;5046519;23;20154;-92
2023/12/28 04:07:31;;;;;;;0.88;0.50;;;10.40;99.90;;;;;;5046696;23;20146;-94
2023/12/28 04:09:32;;;;;;;1.30;0.75;;;10.40;99.90;;;;;;5046410;23;20154;-92
2023/12/28 04:11:33;;;;;;;1.55;0.63;;;10.40;99.90;;;;;;5046035;23;20150;-94
2023/12/28 04:13:35;;;;;;;3.70;1.38;;;10.40;99.90;;;;;;5046362;23;20210;-90
2023/12/28 04:15:36;;;;;;;2.35;0.93;;;10.30;99.90;;;;;;5046214;23;20668;-92
2023/12/28 04:17:36;;;;;;;1.17;0.60;;;10.30;99.90;;;;;;5070580;23;20174;-96
2023/12/28 04:19:37;;;;;;;10.32;0.65;;;10.30;99.90;;;;;;5046569;23;20193;-92
2023/12/28 04:21:38;;;;;;;3.50;0.85;;;10.30;99.90;;;;;;5070338;23;20217;-95
2023/12/28 04:23:40;;;;;;;1.42;0.47;;;10.30;99.90;;;;;;5046512;23;20233;-94
2023/12/28 04:25:41;;;;;;;1.17;0.73;;;10.30;99.90;;;;;;5070026;23;20679;-95
2023/12/28 04:27:42;;;;;;;4.95;0.73;;;10.30;99.90;;;;;;5045938;23;20190;-92
2023/12/28 04:29:45;;;;;;;2.30;0.40;;;10.40;99.90;;;;;;5070439;23;20165;-95
2023/12/28 04:31:46;;;;;;;0.30;0.28;;;10.40;99.90;;;;;;5070236;23;20212;-95
2023/12/28 04:33:47;;;;;;;6.95;1.63;;;10.40;99.90;;;;;;5070415;23;20200;-94
2023/12/28 04:35:48;;;;;;;1.90;0.47;;;10.30;99.90;;;;;;5045923;23;20193;-91
2023/12/28 04:37:49;;;;;;;5.65;0.73;;;10.40;99.90;;;;;;5046374;23;20146;-92
2023/12/28 04:39:50;;;;;;;3.70;0.47;;;10.40;99.90;;;;;;5046158;23;20150;-93
2023/12/28 04:41:51;;;;;;;3.60;0.45;;;10.40;99.90;;;;;;5070341;23;20149;-95
2023/12/28 04:43:52;;;;;;;1.20;0.30;;;10.40;99.90;;;;;;5046040;23;20158;-93
2023/12/28 04:45:53;;;;;;;1.17;0.82;;;10.40;99.90;;;;;;5046157;23;20174;-95
2023/12/28 04:47:54;;;;;;;0.73;0.73;;;10.40;99.90;;;;;;5046179;23;20221;-95
2023/12/28 04:49:54;;;;;;;3.70;0.88;;;10.30;99.90;;;;;;5046150;23;20211;-95
2023/12/28 04:51:56;;;;;;;1.13;0.35;;;10.30;99.90;;;;;;5070262;23;20565;-95
2023/12/28 04:53:57;;;;;;;3.53;0.57;;;10.30;99.90;;;;;;5070306;23;20150;-95
2023/12/28 04:55:57;;;;;;;0.80;0.25;;;10.20;99.90;;;;;;5069937;23;20200;-95
2023/12/28 04:57:58;;;;;;;0.60;0.32;;;10.20;99.90;;;;;;5045770;23;20154;-94
2023/12/28 04:59:59;;;;;;;1.13;0.65;;;10.10;99.90;;;;;;5045931;23;20161;-94
2023/12/28 05:02:00;;;;;;;0.73;0.45;;;10.20;99.90;;;;;;5046271;23;20154;-93
2023/12/28 05:04:02;;;;;;;0.57;0.22;;;10.20;99.90;;;;;;5046782;23;20459;-92
2023/12/28 05:06:03;;;;;;;0.55;0.30;;;10.10;99.90;;;;;;5046555;23;20205;-93
2023/12/28 05:08:04;;;;;;;1.85;0.63;;;10.10;99.90;;;;;;5046505;23;20156;-93
2023/12/28 05:10:05;;;;;;;1.33;0.93;;;10.20;99.90;;;;;;5045962;23;20176;-91
2023/12/28 05:12:06;;;;;;;0.30;0.13;;;10.20;99.90;;;;;;5046136;23;20166;-93
2023/12/28 05:14:07;;;;;;;1.83;0.68;;;10.20;99.90;;;;;;5046430;23;20482;-94
2023/12/28 05:16:08;;;;;;;2.70;1.02;;;10.30;99.90;;;;;;5045609;23;20257;-93
2023/12/28 05:18:09;;;;;;;3.45;0.57;;;10.30;99.90;;;;;;5045629;23;20243;-92
2023/12/28 05:20:10;;;;;;;6.50;0.85;;;10.30;99.90;;;;;;5045664;23;20162;-93
2023/12/28 05:22:12;;;;;;;4.45;0.28;;;10.40;99.90;;;;;;5045997;23;20154;-95
2023/12/28 05:24:13;;;;;;;3.28;0.98;;;10.40;99.90;;;;;;5045637;23;20154;-94
2023/12/28 05:26:14;;;;;;;7.57;1.45;;;10.40;99.90;;;;;;5070238;23;20177;-90
2023/12/28 05:28:15;;;;;;;4.30;0.40;;;10.50;99.90;;;;;;5045878;23;20154;-95
2023/12/28 05:30:16;;;;;;;3.83;1.02;;;10.50;99.90;;;;;;5045661;23;20186;-92
2023/12/28 05:32:16;;;;;;;0.55;0.20;;;10.50;99.90;;;;;;5045831;23;20161;-95
2023/12/28 05:34:17;;;;;;;3.28;0.40;;;10.50;99.90;;;;;;5070011;23;20600;-95
2023/12/28 05:36:18;;;;;;;3.50;0.35;;;10.50;99.90;;;;;;5045510;23;20189;-95
2023/12/28 05:38:19;;;;;;;3.53;0.38;;;10.50;99.90;;;;;;5045522;23;20150;-92
2023/12/28 05:40:20;;;;;;;2.25;0.25;;;10.50;99.90;;;;;;5045569;23;20154;-96
2023/12/28 05:42:21;;;;;;;3.13;0.90;;;10.50;99.90;;;;;;5070666;23;20150;-94
2023/12/28 05:44:21;;;;;;;1.00;0.35;;;10.40;99.90;;;;;;5046234;23;20549;-92
2023/12/28 05:46:22;;;;;;;2.38;0.28;;;10.40;99.90;;;;;;5045536;23;20173;-94
2023/12/28 05:48:23;;;;;;;5.05;0.73;;;10.30;99.90;;;;;;5045434;23;20667;-92
2023/12/28 05:50:24;;;;;;;6.55;0.40;;;10.30;99.90;;;;;;5045385;23;20173;-95
2023/12/28 05:52:25;;;;;;;2.03;0.95;;;10.40;99.90;;;;;;5069993;23;20512;-95
2023/12/28 05:54:26;;;;;;;3.72;0.90;;;10.30;99.90;;;;;;5069845;23;20648;-92
2023/12/28 05:56:26;;;;;;;1.83;0.55;;;10.40;99.90;;;;;;5045730;23;20248;-93
2023/12/28 05:58:27;;;;;;;3.92;0.40;;;10.30;99.90;;;;;;5045735;23;20197;-93
2023/12/28 06:00:28;;;;;;;1.88;0.20;;;10.30;99.90;;;;;;5045064;23;20193;-94
2023/12/28 06:02:29;;;;;;;13.38;1.52;;;10.40;99.90;;;;;;5069785;23;20153;-95
2023/12/28 06:04:30;;;;;;;1.98;0.55;;;10.40;99.90;;;;;;5045014;23;20477;-92
2023/12/28 06:06:30;;;;;;;2.42;0.50;;;10.30;99.90;;;;;;5044992;23;20178;-91
2023/12/28 06:08:31;;;;;;;3.42;0.55;;;10.30;99.90;;;;;;5044940;23;20242;-93
2023/12/28 06:10:33;;;;;;;3.55;0.95;;;10.30;99.90;;;;;;5045157;23;20652;-94
2023/12/28 06:12:34;;;;;;;5.50;0.85;;;10.40;99.90;;;;;;5045102;23;20577;-94
2023/12/28 06:14:34;;;;;;;7.82;1.13;;;10.30;99.90;;;;;;5069035;23;20209;-95
2023/12/28 06:16:35;;;;;;;2.17;0.60;;;10.30;99.90;;;;;;5045070;23;20204;-95
2023/12/28 06:18:36;;;;;;;4.20;1.48;;;10.20;99.90;;;;;;5069295;23;20146;-94
2023/12/28 06:20:37;;;;;;;1.10;0.30;;;10.30;99.90;;;;;;5045456;23;20177;-94
2023/12/28 06:22:38;;;;;;;4.57;0.77;;;10.20;99.90;;;;;;5069313;23;20150;-94
2023/12/28 06:24:40;;;;;;;0.93;0.35;;;10.30;99.90;;;;;;5069636;23;20150;-93
2023/12/28 06:26:42;;;;;;;3.90;0.80;;;10.20;99.90;;;;;;5044747;23;20190;-92
2023/12/28 06:28:43;;;;;;;1.75;0.40;;;10.20;99.90;;;;;;5045243;23;20150;-91
2023/12/28 06:30:44;;;;;;;10.75;1.75;;;10.20;99.90;;;;;;5069472;23;20157;-94
2023/12/28 06:32:45;;;;;;;1.10;0.60;;;10.20;99.90;;;;;;5045440;23;20227;-93
2023/12/28 06:34:46;;;;;;;8.80;2.03;;;10.20;99.90;;;;;;5045003;23;20704;-93
2023/12/28 06:36:46;;;;;;;2.47;0.52;;;10.20;99.90;;;;;;5044956;23;20522;-94
2023/12/28 06:38:47;;;;;;;5.05;0.55;;;10.20;99.90;;;;;;5044978;23;20225;-92
2023/12/28 06:40:48;;;;;;;2.17;1.30;;;10.10;99.90;;;;;;5069210;23;20521;-95
2023/12/28 06:42:49;;;;;;;7.50;0.60;;;10.10;99.90;;;;;;5044990;23;20181;-95
2023/12/28 06:44:50;;;;;;;6.28;0.50;;;10.10;99.90;;;;;;5069086;23;20198;-94
2023/12/28 06:46:50;;;;;;;9.07;1.02;;;10.10;99.90;;;;;;5044836;23;20205;-95
2023/12/28 06:48:51;;;;;;;2.28;0.30;;;10.10;99.90;;;;;;5044938;23;20240;-91
2023/12/28 06:50:52;;;;;;;0.40;0.25;;;10.10;99.90;;;;;;5045093;23;20278;-95
2023/12/28 06:52:53;;;;;;;10.98;1.63;;;10.00;99.90;;;;;;5044959;23;20527;-94
2023/12/28 06:54:54;;;;;;;7.07;1.23;;;10.00;99.90;;;;;;5044945;23;20197;-91
2023/12/28 06:56:54;;;;;;;1.65;0.32;;;10.00;99.90;;;;;;5045073;23;20178;-94
2023/12/28 06:58:55;;;;;;;0.75;0.40;;;9.90;99.90;;;;;;5045344;23;20668;-95
2023/12/28 07:00:57;;;;;;;1.85;0.60;;;10.00;99.90;;;;;;5045430;23;20150;-94
2023/12/28 07:02:57;;;;;;;2.65;0.45;;;9.90;99.90;;;;;;5069724;23;20161;-95
2023/12/28 07:04:58;;;;;;;6.03;0.70;;;10.00;99.90;;;;;;5045748;23;20150;-94
2023/12/28 07:06:59;;;;;;;2.78;0.10;;;9.90;99.90;;;;;;5045046;23;20170;-94
2023/12/28 07:09:00;;;;;;;7.38;0.50;;;9.90;99.90;;;;;;5045347;23;20158;-95
2023/12/28 07:11:02;;;;;;;1.52;0.63;;;10.00;99.90;;;;;;5044892;23;20736;-94
2023/12/28 07:13:03;;;;;;;3.47;0.30;;;10.00;99.90;;;;;;5044770;23;20209;-95
2023/12/28 07:15:04;;;;;;;7.85;1.83;;;10.00;99.90;;;;;;5068892;23;20219;-96
2023/12/28 07:17:06;;;;;;;5.55;0.40;;;9.90;99.90;;;;;;5044712;23;20178;-94
2023/12/28 07:19:07;;;;;;;2.35;1.33;;;9.90;99.90;;;;;;5045288;23;20150;-92
2023/12/28 07:21:11;;;;;;;1.40;0.32;;;9.90;99.90;;;;;;5044891;23;20192;-93
2023/12/28 07:23:11;;;;;;;3.92;1.05;;;9.80;99.90;;;;;;5045131;23;20643;-93
2023/12/28 07:25:12;;;;;;;0.50;0.28;;;9.80;99.90;;;;;;5045044;23;20253;-95
2023/12/28 07:27:13;;;;;;;3.08;0.60;;;9.80;99.90;;;;;;5044855;23;20190;-93
2023/12/28 07:29:14;;;;;;;5.25;0.60;;;9.70;99.90;;;;;;5045028;23;20250;-91
2023/12/28 07:31:28;;;;;;;1.20;0.20;;;9.70;99.90;;;;;;5044998;23;20241;-94
2023/12/28 07:33:28;;;;;;;2.38;0.90;;;9.70;99.90;;;;;;5045124;23;20161;-94
2023/12/28 07:35:29;;;;;;;2.60;0.98;;;9.70;99.90;;;;;;5068792;23;20197;-93
2023/12/28 07:37:30;;;;;;;11.00;0.95;;;9.70;99.90;;;;;;5044721;23;20202;-91
2023/12/28 07:39:31;;;;;;;3.42;0.63;;;9.80;99.90;;;;;;5044386;23;20620;-91
2023/12/28 07:41:31;;;;;;;8.52;2.10;;;9.80;99.90;;;;;;5044668;23;20367;-95
2023/12/28 07:43:32;;;;;;;6.57;1.25;;;9.90;99.90;;;;;;5069193;23;20632;-93
2023/12/28 07:45:33;;;;;;;0.63;0.32;;;9.90;99.90;;;;;;5069023;23;20181;-95
2023/12/28 07:47:34;;;;;;;5.07;1.30;;;9.80;99.90;;;;;;5044479;23;20146;-94
2023/12/28 07:49:35;;;;;;;3.63;1.42;;;9.80;99.90;;;;;;5044581;23;20541;-94
2023/12/28 07:51:36;;;;;;;9.20;1.15;;;9.80;99.90;;;;;;5044729;23;20154;-95
2023/12/28 07:53:37;;;;;;;8.48;1.63;;;9.80;99.90;;;;;;5069081;23;20149;-91
2023/12/28 07:55:38;;;;;;;5.28;1.10;;;9.90;99.90;;;;;;5044713;23;20217;-95
2023/12/28 07:57:38;;;;;;;7.72;0.93;;;9.90;99.90;;;;;;5044945;23;20505;-91
2023/12/28 07:59:39;;;;;;;5.63;0.90;;;9.80;99.90;;;;;;5044951;23;20158;-94
2023/12/28 08:01:40;;;;;;;11.52;1.17;;;9.90;99.90;;;;;;5070178;23;20556;-93
2023/12/28 08:03:41;;;;;;;8.63;1.10;;;9.90;99.90;;;;;;5070458;23;20163;-95
2023/12/28 08:05:42;;;;;;;3.58;0.52;;;10.00;99.90;;;;;;5070576;23;20631;-93
2023/12/28 08:07:43;;;;;;;8.77;1.73;;;10.00;99.90;;;;;;5046275;23;20166;-94
2023/12/28 08:09:44;;;;;;;1.25;0.77;;;9.90;99.90;;;;;;5046411;23;20154;-93
2023/12/28 08:11:45;;;;;;;5.55;0.70;;;9.90;99.90;;;;;;5046482;23;20665;-92
2023/12/28 08:13:46;;;;;;;11.98;0.82;;;9.90;99.90;;;;;;5046341;23;20150;-92
2023/12/28 08:15:47;;;;;;;6.45;1.48;;;10.00;99.90;;;;;;5045714;23;20198;-92
2023/12/28 08:17:48;;;;;;;7.95;0.60;;;10.00;99.90;;;;;;5046742;23;20175;-94
2023/12/28 08:19:49;;;;;;;8.05;0.60;;;10.00;99.90;;;;;;5046369;23;20162;-94
2023/12/28 08:21:50;;;;;;;4.10;1.58;;;10.00;99.90;;;;;;5046023;23;20155;-92
2023/12/28 08:23:51;;;;;;;4.20;0.95;;;10.10;99.90;;;;;;5070424;23;20197;-95
2023/12/28 08:25:52;;;;;;;4.78;0.63;;;10.10;99.90;;;;;;5046106;23;20197;-95
2023/12/28 08:27:53;;;;;;;11.88;1.70;;;10.20;99.90;;;;;;5045968;23;20159;-93
2023/12/28 08:29:54;;;;;;;0.82;0.45;;;10.20;99.90;;;;;;5046040;23;20554;-93
2023/12/28 08:31:55;;;;;;;7.25;0.65;;;10.20;99.90;;;;;;5070004;23;20150;-93
2023/12/28 08:33:56;;;;;;;10.30;0.73;;;10.20;99.90;;;;;;5046651;23;20158;-93
2023/12/28 08:35:57;;;;;;;2.22;0.50;;;10.30;99.90;;;;;;5045699;23;20198;-92
2023/12/28 08:37:58;;;;;;;5.00;1.33;;;10.40;99.90;;;;;;5070510;23;20292;-93
2023/12/28 08:39:58;;;;;;;1.65;0.70;;;10.50;99.90;;;;;;5045899;23;20154;-95
2023/12/28 08:41:59;;;;;;;5.10;0.82;;;10.60;99.90;;;;;;5045920;23;20237;-95
2023/12/28 08:44:00;;;;;;;5.32;0.63;;;10.70;99.90;;;;;;5045975;23;20205;-93
2023/12/28 08:46:01;;;;;;;4.68;0.93;;;10.60;99.90;;;;;;5070176;23;20169;-93
2023/12/28 08:48:03;;;;;;;2.17;0.32;;;10.60;99.90;;;;;;5045691;23;20238;-94
2023/12/28 08:50:06;;;;;;;2.92;0.60;;;10.60;99.90;;;;;;5045365;23;20197;-95
2023/12/28 08:52:06;;;;;;;3.22;0.50;;;10.60;99.90;;;;;;5046078;23;20509;-95
2023/12/28 08:54:08;;;;;;;4.75;1.17;;;10.60;99.90;;;;;;5045898;23;20154;-92
2023/12/28 08:56:23;;;;;;;4.43;0.30;;;10.60;99.90;;;;;;5045445;23;20193;-94
2023/12/28 08:58:23;;;;;;;8.50;0.47;;;10.60;99.90;;;;;;5045967;23;20624;-92
2023/12/28 09:00:24;;;;;;;7.13;1.10;;;10.60;99.90;;;;;;5045678;23;20166;-92
2023/12/28 09:02:28;;;;;;;1.13;0.38;;;10.50;99.90;;;;;;5045812;23;20229;-92
2023/12/28 09:04:28;;;;;;;8.18;1.20;;;10.40;99.90;;;;;;5069958;23;20228;-93
2023/12/28 09:06:29;;;;;;;1.45;0.43;;;10.40;99.90;;;;;;5045849;23;20170;-92
2023/12/28 09:08:30;;;;;;;3.28;1.10;;;10.40;99.90;;;;;;5046006;23;20216;-94
2023/12/28 09:10:31;;;;;;;2.88;0.88;;;10.50;99.90;;;;;;5070342;23;20157;-94
2023/12/28 09:12:32;;;;;;;4.95;0.80;;;10.50;99.90;;;;;;5069756;23;20164;-95
2023/12/28 09:14:32;;;;;;;1.45;0.68;;;10.50;99.90;;;;;;5045741;23;20190;-95
2023/12/28 09:16:34;;;;;;;1.33;0.70;;;10.50;99.90;;;;;;5045157;23;20537;-93
2023/12/28 09:18:37;;;;;;;1.95;0.40;;;10.50;99.90;;;;;;5045544;23;20479;-92
2023/12/28 09:20:38;;;;;;;12.77;0.95;;;10.50;99.90;;;;;;5045777;23;20158;-92
2023/12/28 09:22:38;;;;;;;8.02;0.93;;;10.40;99.90;;;;;;5046198;23;20147;-95
2023/12/28 09:24:39;;;;;;;12.23;0.80;;;10.40;99.90;;;;;;5045744;23;20146;-94
2023/12/28 09:26:41;;;;;;;0.98;0.22;;;10.50;99.90;;;;;;5070208;23;20197;-92
2023/12/28 09:28:43;;;;;;;7.20;0.73;;;10.50;99.90;;;;;;5045586;23;20150;-95
2023/12/28 09:30:44;;;;;;;3.42;1.23;;;10.50;99.90;;;;;;5070265;23;20185;-93
2023/12/28 09:32:45;;;;;;;8.00;0.65;;;10.60;99.90;;;;;;5045757;23;20155;-96
2023/12/28 09:34:46;;;;;;;2.30;0.90;;;10.60;99.90;;;;;;5045634;23;20179;-94
2023/12/28 09:36:46;;;;;;;1.73;0.40;;;10.70;99.90;;;;;;5045290;23;20190;-93
2023/12/28 09:38:48;;;;;;;3.33;0.98;;;10.70;99.90;;;;;;5069660;23;20160;-92
2023/12/28 09:40:54;;;;;;;1.42;0.43;;;10.70;99.90;;;;;;5045432;23;20158;-92
2023/12/28 09:43:10;;;;;;;2.63;0.45;;;10.70;99.90;;;;;;5045124;23;20147;-92
2023/12/28 09:45:11;;;;;;;6.22;0.98;;;10.80;99.90;;;;;;5045930;23;20162;-94
2023/12/28 09:47:14;;;;;;;7.82;1.15;;;10.80;99.90;;;;;;5045378;23;20237;-94
2023/12/28 09:49:16;;;;;;;6.40;1.63;;;10.80;99.90;;;;;;5045267;23;20595;-93
2023/12/28 09:51:17;;;;;;;3.67;1.00;;;10.80;99.90;;;;;;5045600;23;20230;-95
2023/12/28 09:53:18;;;;;;;4.00;1.27;;;10.80;99.90;;;;;;5045391;23;20161;-94
2023/12/28 09:55:19;;;;;;;1.95;0.70;;;10.80;99.90;;;;;;5045487;23;20189;-96
2023/12/28 09:57:20;;;;;;;5.25;0.82;;;10.80;99.90;;;;;;5045430;23;20158;-92
2023/12/28 09:59:21;;;;;;;5.82;0.57;;;10.80;99.90;;;;;;5069384;23;20216;-96
2023/12/28 10:01:22;;;;;;;4.97;0.50;;;10.90;99.90;;;;;;5069602;23;20150;-94
2023/12/28 10:03:23;;;;;;;10.75;1.27;;;10.90;99.90;;;;;;5045492;23;20294;-93
2023/12/28 10:05:24;;;;;;;7.53;0.68;;;10.80;99.90;;;;;;5045257;23;20158;-95
2023/12/28 10:07:26;;;;;;;0.93;0.68;;;10.80;99.90;;;;;;5045541;23;20146;-92
2023/12/28 10:09:27;;;;;;;10.90;1.35;;;10.70;99.90;;;;;;5045348;23;20158;-92
2023/12/28 10:11:28;;;;;;;9.05;1.45;;;10.80;99.90;;;;;;5069550;23;20184;-96
2023/12/28 10:13:32;;;;;;;2.03;0.40;;;10.80;99.90;;;;;;5069507;23;20160;-93
2023/12/28 10:15:34;;;;;;;5.40;0.73;;;10.90;99.90;;;;;;5069531;23;20282;-95
2023/12/28 10:17:35;;;;;;;3.80;1.23;;;11.00;99.90;;;;;;5069488;23;20224;-95
2023/12/28 10:19:39;;;;;;;2.67;0.82;;;11.00;99.90;;;;;;5044994;23;20211;-94
2023/12/28 10:21:40;;;;;;;10.75;0.63;;;11.10;99.90;;;;;;5045464;23;20162;-92
2023/12/28 10:23:41;;;;;;;8.13;1.05;;;11.20;99.90;;;;;;5069088;23;20158;-95
2023/12/28 10:25:42;;;;;;;4.22;0.98;;;11.20;99.90;;;;;;5045023;23;20177;-95
2023/12/28 10:27:43;;;;;;;1.65;0.65;;;11.20;99.90;;;;;;5045129;23;20155;-93
2023/12/28 10:29:44;;;;;;;7.88;1.33;;;11.10;99.90;;;;;;5044885;23;20205;-94
2023/12/28 10:31:49;;;;;;;1.85;0.88;;;11.10;99.90;;;;;;5070010;23;20200;-95